sensor_id;sensor_type;location;lat;lon;timestamp;P1;durP1;ratioP1;P2;durP2;ratioP2
14092;SDS011;7123;49.468;10.992;2023-05-13T00:01:47;3.90;;;2.37;;
14092;SDS011;7123;49.468;10.992;2023-05-13T00:04:15;4.60;;;1.97;;
14092;SDS011;7123;49.468;10.992;2023-05-13T00:06:42;2.13;;;2.03;;
14092;SDS011;7123;49.468;10.992;2023-05-13T00:09:08;3.33;;;1.90;;
14092;SDS011;7123;49.468;10.992;2023-05-13T00:11:35;2.20;;;2.10;;
14092;SDS011;7123;49.468;10.992;2023-05-13T00:14:02;3.17;;;2.17;;
14092;SDS011;7123;49.468;10.992;2023-05-13T00:16:29;1.93;;;1.83;;
14092;SDS011;7123;49.468;10.992;2023-05-13T00:18:55;2.33;;;2.20;;
14092;SDS011;7123;49.468;10.992;2023-05-13T00:21:22;2.40;;;2.20;;
14092;SDS011;7123;49.468;10.992;2023-05-13T00:23:49;8.13;;;2.30;;
14092;SDS011;7123;49.468;10.992;2023-05-13T00:26:16;2.50;;;2.30;;
14092;SDS011;7123;49.468;10.992;2023-05-13T00:28:42;2.80;;;2.10;;
14092;SDS011;7123;49.468;10.992;2023-05-13T00:31:09;2.57;;;2.37;;
14092;SDS011;7123;49.468;10.992;2023-05-13T00:33:36;3.00;;;1.90;;
14092;SDS011;7123;49.468;10.992;2023-05-13T00:36:03;2.20;;;2.10;;
14092;SDS011;7123;49.468;10.992;2023-05-13T00:38:30;3.37;;;2.23;;
14092;SDS011;7123;49.468;10.992;2023-05-13T00:40:57;2.73;;;2.53;;
14092;SDS011;7123;49.468;10.992;2023-05-13T00:43:24;2.33;;;2.13;;
14092;SDS011;7123;49.468;10.992;2023-05-13T00:45:51;2.50;;;2.30;;
14092;SDS011;7123;49.468;10.992;2023-05-13T00:48:18;2.90;;;2.67;;
14092;SDS011;7123;49.468;10.992;2023-05-13T00:50:44;3.10;;;2.10;;
14092;SDS011;7123;49.468;10.992;2023-05-13T00:53:11;2.43;;;2.27;;
14092;SDS011;7123;49.468;10.992;2023-05-13T00:55:41;2.30;;;2.20;;
14092;SDS011;7123;49.468;10.992;2023-05-13T00:58:09;2.57;;;2.07;;
14092;SDS011;7123;49.468;10.992;2023-05-13T01:00:38;3.63;;;2.20;;
14092;SDS011;7123;49.468;10.992;2023-05-13T01:03:13;2.63;;;2.43;;
14092;SDS011;7123;49.468;10.992;2023-05-13T01:08:48;2.43;;;2.10;;
14092;SDS011;7123;49.468;10.992;2023-05-13T01:11:28;2.30;;;2.20;;
14092;SDS011;7123;49.468;10.992;2023-05-13T01:14:05;4.83;;;2.73;;
14092;SDS011;7123;49.468;10.992;2023-05-13T01:16:50;2.40;;;2.20;;
14092;SDS011;7123;49.468;10.992;2023-05-13T01:22:18;2.60;;;2.40;;
14092;SDS011;7123;49.468;10.992;2023-05-13T01:24:44;3.00;;;2.67;;
14092;SDS011;7123;49.468;10.992;2023-05-13T01:27:11;2.60;;;2.40;;
14092;SDS011;7123;49.468;10.992;2023-05-13T01:29:39;2.77;;;2.57;;
14092;SDS011;7123;49.468;10.992;2023-05-13T01:32:06;2.87;;;2.67;;
14092;SDS011;7123;49.468;10.992;2023-05-13T01:34:35;3.00;;;2.80;;
14092;SDS011;7123;49.468;10.992;2023-05-13T01:37:03;3.20;;;2.90;;
14092;SDS011;7123;49.468;10.992;2023-05-13T01:39:31;2.90;;;2.70;;
14092;SDS011;7123;49.468;10.992;2023-05-13T01:41:57;6.40;;;3.10;;
14092;SDS011;7123;49.468;10.992;2023-05-13T01:44:24;2.63;;;2.43;;
14092;SDS011;7123;49.468;10.992;2023-05-13T01:46:51;3.10;;;2.80;;
14092;SDS011;7123;49.468;10.992;2023-05-13T01:49:18;3.30;;;3.00;;
14092;SDS011;7123;49.468;10.992;2023-05-13T01:51:45;3.07;;;2.83;;
14092;SDS011;7123;49.468;10.992;2023-05-13T01:54:12;3.10;;;2.80;;
14092;SDS011;7123;49.468;10.992;2023-05-13T01:56:38;2.60;;;2.50;;
14092;SDS011;7123;49.468;10.992;2023-05-13T01:59:06;3.17;;;2.57;;
14092;SDS011;7123;49.468;10.992;2023-05-13T02:01:34;2.60;;;2.40;;
14092;SDS011;7123;49.468;10.992;2023-05-13T02:04:02;3.93;;;2.40;;
14092;SDS011;7123;49.468;10.992;2023-05-13T02:06:28;3.80;;;2.53;;
14092;SDS011;7123;49.468;10.992;2023-05-13T02:08:55;2.50;;;2.40;;
14092;SDS011;7123;49.468;10.992;2023-05-13T02:11:22;3.50;;;2.50;;
14092;SDS011;7123;49.468;10.992;2023-05-13T02:13:49;2.87;;;2.43;;
14092;SDS011;7123;49.468;10.992;2023-05-13T02:16:16;5.47;;;3.10;;
14092;SDS011;7123;49.468;10.992;2023-05-13T02:18:43;2.67;;;2.47;;
14092;SDS011;7123;49.468;10.992;2023-05-13T02:21:10;5.17;;;2.43;;
14092;SDS011;7123;49.468;10.992;2023-05-13T02:23:36;4.33;;;2.73;;
14092;SDS011;7123;49.468;10.992;2023-05-13T02:26:03;3.60;;;2.50;;
14092;SDS011;7123;49.468;10.992;2023-05-13T02:28:30;2.53;;;2.43;;
14092;SDS011;7123;49.468;10.992;2023-05-13T02:30:57;2.70;;;2.40;;
14092;SDS011;7123;49.468;10.992;2023-05-13T02:33:23;3.70;;;3.27;;
14092;SDS011;7123;49.468;10.992;2023-05-13T02:35:50;3.23;;;3.03;;
14092;SDS011;7123;49.468;10.992;2023-05-13T02:38:17;3.87;;;3.57;;
14092;SDS011;7123;49.468;10.992;2023-05-13T02:40:43;4.00;;;3.30;;
14092;SDS011;7123;49.468;10.992;2023-05-13T02:43:10;5.00;;;2.77;;
14092;SDS011;7123;49.468;10.992;2023-05-13T02:45:38;3.30;;;3.00;;
14092;SDS011;7123;49.468;10.992;2023-05-13T02:48:06;3.30;;;3.00;;
14092;SDS011;7123;49.468;10.992;2023-05-13T02:50:32;3.20;;;3.00;;
14092;SDS011;7123;49.468;10.992;2023-05-13T02:52:59;4.50;;;2.83;;
14092;SDS011;7123;49.468;10.992;2023-05-13T02:55:26;3.30;;;3.00;;
14092;SDS011;7123;49.468;10.992;2023-05-13T02:57:53;3.10;;;2.80;;
14092;SDS011;7123;49.468;10.992;2023-05-13T03:00:21;4.93;;;2.60;;
14092;SDS011;7123;49.468;10.992;2023-05-13T03:02:49;3.10;;;2.90;;
14092;SDS011;7123;49.468;10.992;2023-05-13T03:05:16;3.13;;;2.93;;
14092;SDS011;7123;49.468;10.992;2023-05-13T03:07:42;3.10;;;2.73;;
14092;SDS011;7123;49.468;10.992;2023-05-13T03:10:09;4.23;;;3.03;;
14092;SDS011;7123;49.468;10.992;2023-05-13T03:12:36;4.87;;;2.80;;
14092;SDS011;7123;49.468;10.992;2023-05-13T03:15:02;2.90;;;2.70;;
14092;SDS011;7123;49.468;10.992;2023-05-13T03:17:29;3.63;;;2.93;;
14092;SDS011;7123;49.468;10.992;2023-05-13T03:19:57;3.70;;;2.90;;
14092;SDS011;7123;49.468;10.992;2023-05-13T03:22:23;3.10;;;2.80;;
14092;SDS011;7123;49.468;10.992;2023-05-13T03:24:50;5.77;;;2.80;;
14092;SDS011;7123;49.468;10.992;2023-05-13T03:27:17;3.17;;;2.87;;
14092;SDS011;7123;49.468;10.992;2023-05-13T03:29:44;3.07;;;2.77;;
14092;SDS011;7123;49.468;10.992;2023-05-13T03:32:10;4.57;;;2.80;;
14092;SDS011;7123;49.468;10.992;2023-05-13T03:34:37;3.03;;;2.83;;
14092;SDS011;7123;49.468;10.992;2023-05-13T03:37:04;3.27;;;3.00;;
14092;SDS011;7123;49.468;10.992;2023-05-13T03:39:30;2.60;;;2.50;;
14092;SDS011;7123;49.468;10.992;2023-05-13T03:41:57;3.00;;;2.80;;
14092;SDS011;7123;49.468;10.992;2023-05-13T03:44:24;5.90;;;3.00;;
14092;SDS011;7123;49.468;10.992;2023-05-13T03:46:50;3.30;;;3.00;;
14092;SDS011;7123;49.468;10.992;2023-05-13T03:49:17;3.00;;;2.80;;
14092;SDS011;7123;49.468;10.992;2023-05-13T03:51:44;4.00;;;3.30;;
14092;SDS011;7123;49.468;10.992;2023-05-13T03:54:11;4.27;;;3.20;;
14092;SDS011;7123;49.468;10.992;2023-05-13T03:56:37;3.07;;;2.87;;
14092;SDS011;7123;49.468;10.992;2023-05-13T03:59:04;3.30;;;3.00;;
14092;SDS011;7123;49.468;10.992;2023-05-13T04:01:31;2.97;;;2.77;;
14092;SDS011;7123;49.468;10.992;2023-05-13T04:03:57;2.90;;;2.70;;
14092;SDS011;7123;49.468;10.992;2023-05-13T04:06:24;3.10;;;2.90;;
14092;SDS011;7123;49.468;10.992;2023-05-13T04:08:50;3.20;;;2.90;;
14092;SDS011;7123;49.468;10.992;2023-05-13T04:11:17;3.70;;;3.23;;
14092;SDS011;7123;49.468;10.992;2023-05-13T04:13:44;4.37;;;3.27;;
14092;SDS011;7123;49.468;10.992;2023-05-13T04:16:11;3.63;;;3.30;;
14092;SDS011;7123;49.468;10.992;2023-05-13T04:18:37;3.13;;;2.90;;
14092;SDS011;7123;49.468;10.992;2023-05-13T04:21:05;3.50;;;3.17;;
14092;SDS011;7123;49.468;10.992;2023-05-13T04:23:32;3.50;;;3.20;;
14092;SDS011;7123;49.468;10.992;2023-05-13T04:25:59;4.53;;;3.03;;
14092;SDS011;7123;49.468;10.992;2023-05-13T04:28:25;6.33;;;2.87;;
14092;SDS011;7123;49.468;10.992;2023-05-13T04:30:52;3.77;;;3.30;;
14092;SDS011;7123;49.468;10.992;2023-05-13T04:33:19;6.50;;;3.17;;
14092;SDS011;7123;49.468;10.992;2023-05-13T04:35:46;3.37;;;3.07;;
14092;SDS011;7123;49.468;10.992;2023-05-13T04:38:12;3.03;;;2.80;;
14092;SDS011;7123;49.468;10.992;2023-05-13T04:40:39;4.60;;;3.40;;
14092;SDS011;7123;49.468;10.992;2023-05-13T04:43:06;3.73;;;3.20;;
14092;SDS011;7123;49.468;10.992;2023-05-13T04:45:33;3.23;;;3.03;;
14092;SDS011;7123;49.468;10.992;2023-05-13T04:47:59;3.10;;;2.90;;
14092;SDS011;7123;49.468;10.992;2023-05-13T04:50:26;3.40;;;3.20;;
14092;SDS011;7123;49.468;10.992;2023-05-13T04:52:53;4.37;;;3.47;;
14092;SDS011;7123;49.468;10.992;2023-05-13T04:55:21;3.47;;;3.27;;
14092;SDS011;7123;49.468;10.992;2023-05-13T04:57:48;5.13;;;3.27;;
14092;SDS011;7123;49.468;10.992;2023-05-13T05:00:15;3.30;;;3.07;;
14092;SDS011;7123;49.468;10.992;2023-05-13T05:02:42;4.20;;;3.30;;
14092;SDS011;7123;49.468;10.992;2023-05-13T05:05:08;3.30;;;2.97;;
14092;SDS011;7123;49.468;10.992;2023-05-13T05:07:35;3.60;;;3.10;;
14092;SDS011;7123;49.468;10.992;2023-05-13T05:10:06;3.60;;;3.33;;
14092;SDS011;7123;49.468;10.992;2023-05-13T05:12:33;3.73;;;3.30;;
14092;SDS011;7123;49.468;10.992;2023-05-13T05:15:00;3.63;;;3.40;;
14092;SDS011;7123;49.468;10.992;2023-05-13T05:17:26;3.23;;;3.00;;
14092;SDS011;7123;49.468;10.992;2023-05-13T05:19:57;3.13;;;2.93;;
14092;SDS011;7123;49.468;10.992;2023-05-13T05:22:25;3.80;;;3.23;;
14092;SDS011;7123;49.468;10.992;2023-05-13T05:24:52;3.30;;;3.00;;
14092;SDS011;7123;49.468;10.992;2023-05-13T05:27:18;3.63;;;3.37;;
14092;SDS011;7123;49.468;10.992;2023-05-13T05:29:45;3.03;;;2.80;;
14092;SDS011;7123;49.468;10.992;2023-05-13T05:32:12;3.50;;;3.30;;
14092;SDS011;7123;49.468;10.992;2023-05-13T05:34:38;3.30;;;3.10;;
14092;SDS011;7123;49.468;10.992;2023-05-13T05:37:06;3.33;;;3.03;;
14092;SDS011;7123;49.468;10.992;2023-05-13T05:39:32;3.50;;;3.20;;
14092;SDS011;7123;49.468;10.992;2023-05-13T05:42:00;4.13;;;3.27;;
14092;SDS011;7123;49.468;10.992;2023-05-13T05:44:27;3.30;;;3.10;;
14092;SDS011;7123;49.468;10.992;2023-05-13T05:46:53;3.37;;;3.07;;
14092;SDS011;7123;49.468;10.992;2023-05-13T05:49:21;3.40;;;3.07;;
14092;SDS011;7123;49.468;10.992;2023-05-13T05:51:48;3.70;;;3.40;;
14092;SDS011;7123;49.468;10.992;2023-05-13T05:54:14;3.53;;;3.20;;
14092;SDS011;7123;49.468;10.992;2023-05-13T05:56:41;3.17;;;2.97;;
14092;SDS011;7123;49.468;10.992;2023-05-13T05:59:08;3.37;;;3.17;;
14092;SDS011;7123;49.468;10.992;2023-05-13T06:01:36;3.80;;;3.40;;
14092;SDS011;7123;49.468;10.992;2023-05-13T06:04:03;3.70;;;3.40;;
14092;SDS011;7123;49.468;10.992;2023-05-13T06:06:31;3.20;;;3.00;;
14092;SDS011;7123;49.468;10.992;2023-05-13T06:08:58;3.13;;;2.93;;
14092;SDS011;7123;49.468;10.992;2023-05-13T06:11:25;3.47;;;3.20;;
14092;SDS011;7123;49.468;10.992;2023-05-13T06:13:52;3.00;;;2.80;;
14092;SDS011;7123;49.468;10.992;2023-05-13T06:16:19;6.47;;;3.00;;
14092;SDS011;7123;49.468;10.992;2023-05-13T06:18:46;3.00;;;2.80;;
14092;SDS011;7123;49.468;10.992;2023-05-13T06:21:12;5.53;;;2.77;;
14092;SDS011;7123;49.468;10.992;2023-05-13T06:23:39;8.37;;;3.30;;
14092;SDS011;7123;49.468;10.992;2023-05-13T06:26:07;3.20;;;3.00;;
14092;SDS011;7123;49.468;10.992;2023-05-13T06:28:33;3.70;;;3.40;;
14092;SDS011;7123;49.468;10.992;2023-05-13T06:31:00;3.00;;;2.80;;
14092;SDS011;7123;49.468;10.992;2023-05-13T06:33:27;5.77;;;3.03;;
14092;SDS011;7123;49.468;10.992;2023-05-13T06:35:54;3.07;;;2.87;;
14092;SDS011;7123;49.468;10.992;2023-05-13T06:38:20;3.20;;;2.90;;
14092;SDS011;7123;49.468;10.992;2023-05-13T06:40:47;3.07;;;2.80;;
14092;SDS011;7123;49.468;10.992;2023-05-13T06:43:14;3.53;;;2.90;;
14092;SDS011;7123;49.468;10.992;2023-05-13T06:45:41;5.37;;;3.17;;
14092;SDS011;7123;49.468;10.992;2023-05-13T06:48:08;3.27;;;3.07;;
14092;SDS011;7123;49.468;10.992;2023-05-13T06:50:35;3.57;;;3.00;;
14092;SDS011;7123;49.468;10.992;2023-05-13T06:53:01;3.07;;;2.87;;
14092;SDS011;7123;49.468;10.992;2023-05-13T06:55:28;2.90;;;2.70;;
14092;SDS011;7123;49.468;10.992;2023-05-13T06:57:55;3.27;;;2.90;;
14092;SDS011;7123;49.468;10.992;2023-05-13T07:00:21;3.37;;;2.97;;
14092;SDS011;7123;49.468;10.992;2023-05-13T07:02:49;6.50;;;3.27;;
14092;SDS011;7123;49.468;10.992;2023-05-13T07:05:16;3.30;;;3.10;;
14092;SDS011;7123;49.468;10.992;2023-05-13T07:07:42;3.80;;;3.50;;
14092;SDS011;7123;49.468;10.992;2023-05-13T07:10:09;3.33;;;3.13;;
14092;SDS011;7123;49.468;10.992;2023-05-13T07:12:36;3.20;;;2.93;;
14092;SDS011;7123;49.468;10.992;2023-05-13T07:15:03;3.60;;;3.30;;
14092;SDS011;7123;49.468;10.992;2023-05-13T07:17:30;3.30;;;3.00;;
14092;SDS011;7123;49.468;10.992;2023-05-13T07:19:57;3.23;;;3.03;;
14092;SDS011;7123;49.468;10.992;2023-05-13T07:22:24;3.50;;;2.80;;
14092;SDS011;7123;49.468;10.992;2023-05-13T07:24:50;3.23;;;3.03;;
14092;SDS011;7123;49.468;10.992;2023-05-13T07:27:17;3.27;;;2.80;;
14092;SDS011;7123;49.468;10.992;2023-05-13T07:29:44;3.30;;;3.00;;
14092;SDS011;7123;49.468;10.992;2023-05-13T07:32:10;2.87;;;2.67;;
14092;SDS011;7123;49.468;10.992;2023-05-13T07:34:37;3.20;;;3.00;;
14092;SDS011;7123;49.468;10.992;2023-05-13T07:37:04;3.10;;;2.77;;
14092;SDS011;7123;49.468;10.992;2023-05-13T07:39:31;3.67;;;3.27;;
14092;SDS011;7123;49.468;10.992;2023-05-13T07:41:57;3.07;;;2.87;;
14092;SDS011;7123;49.468;10.992;2023-05-13T07:44:24;4.87;;;3.07;;
14092;SDS011;7123;49.468;10.992;2023-05-13T07:46:51;4.87;;;2.60;;
14092;SDS011;7123;49.468;10.992;2023-05-13T07:49:19;3.27;;;3.07;;
14092;SDS011;7123;49.468;10.992;2023-05-13T07:51:46;3.07;;;2.87;;
14092;SDS011;7123;49.468;10.992;2023-05-13T07:54:13;3.17;;;2.97;;
14092;SDS011;7123;49.468;10.992;2023-05-13T07:56:40;2.70;;;2.53;;
14092;SDS011;7123;49.468;10.992;2023-05-13T07:59:09;3.00;;;2.80;;
14092;SDS011;7123;49.468;10.992;2023-05-13T08:01:35;3.77;;;2.90;;
14092;SDS011;7123;49.468;10.992;2023-05-13T08:04:02;3.00;;;2.80;;
14092;SDS011;7123;49.468;10.992;2023-05-13T08:06:29;3.30;;;3.00;;
14092;SDS011;7123;49.468;10.992;2023-05-13T08:08:58;3.23;;;3.03;;
14092;SDS011;7123;49.468;10.992;2023-05-13T08:11:24;3.53;;;3.23;;
14092;SDS011;7123;49.468;10.992;2023-05-13T08:13:51;3.70;;;3.10;;
14092;SDS011;7123;49.468;10.992;2023-05-13T08:16:18;3.03;;;2.83;;
14092;SDS011;7123;49.468;10.992;2023-05-13T08:18:44;2.83;;;2.60;;
14092;SDS011;7123;49.468;10.992;2023-05-13T08:21:11;5.57;;;3.00;;
14092;SDS011;7123;49.468;10.992;2023-05-13T08:23:38;3.00;;;2.70;;
14092;SDS011;7123;49.468;10.992;2023-05-13T08:26:11;3.37;;;3.07;;
14092;SDS011;7123;49.468;10.992;2023-05-13T08:28:38;3.00;;;2.70;;
14092;SDS011;7123;49.468;10.992;2023-05-13T08:31:05;2.80;;;2.60;;
14092;SDS011;7123;49.468;10.992;2023-05-13T08:33:31;2.57;;;2.37;;
14092;SDS011;7123;49.468;10.992;2023-05-13T08:35:58;3.10;;;2.90;;
14092;SDS011;7123;49.468;10.992;2023-05-13T08:38:26;3.20;;;3.00;;
14092;SDS011;7123;49.468;10.992;2023-05-13T08:40:52;3.23;;;2.73;;
14092;SDS011;7123;49.468;10.992;2023-05-13T08:43:19;3.13;;;2.90;;
14092;SDS011;7123;49.468;10.992;2023-05-13T08:45:49;3.00;;;2.80;;
14092;SDS011;7123;49.468;10.992;2023-05-13T08:48:19;4.10;;;2.60;;
14092;SDS011;7123;49.468;10.992;2023-05-13T08:50:46;3.00;;;2.70;;
14092;SDS011;7123;49.468;10.992;2023-05-13T08:53:13;2.80;;;2.60;;
14092;SDS011;7123;49.468;10.992;2023-05-13T08:55:43;4.90;;;2.70;;
14092;SDS011;7123;49.468;10.992;2023-05-13T08:58:10;3.30;;;2.60;;
14092;SDS011;7123;49.468;10.992;2023-05-13T09:00:37;3.10;;;2.80;;
14092;SDS011;7123;49.468;10.992;2023-05-13T09:03:06;2.67;;;2.47;;
14092;SDS011;7123;49.468;10.992;2023-05-13T09:05:34;2.80;;;2.60;;
14092;SDS011;7123;49.468;10.992;2023-05-13T09:08:06;2.50;;;2.40;;
14092;SDS011;7123;49.468;10.992;2023-05-13T09:10:37;3.33;;;3.03;;
14092;SDS011;7123;49.468;10.992;2023-05-13T09:13:04;2.70;;;2.50;;
14092;SDS011;7123;49.468;10.992;2023-05-13T09:15:32;2.87;;;2.50;;
14092;SDS011;7123;49.468;10.992;2023-05-13T09:18:02;3.30;;;2.70;;
14092;SDS011;7123;49.468;10.992;2023-05-13T09:20:31;3.80;;;2.53;;
14092;SDS011;7123;49.468;10.992;2023-05-13T09:23:01;3.10;;;2.63;;
14092;SDS011;7123;49.468;10.992;2023-05-13T09:25:31;2.67;;;2.30;;
14092;SDS011;7123;49.468;10.992;2023-05-13T09:27:59;2.40;;;2.20;;
14092;SDS011;7123;49.468;10.992;2023-05-13T09:30:28;3.00;;;2.60;;
14092;SDS011;7123;49.468;10.992;2023-05-13T09:33:03;2.80;;;2.60;;
14092;SDS011;7123;49.468;10.992;2023-05-13T09:35:36;3.00;;;2.50;;
14092;SDS011;7123;49.468;10.992;2023-05-13T09:38:27;4.13;;;2.50;;
14092;SDS011;7123;49.468;10.992;2023-05-13T09:41:00;2.70;;;2.50;;
14092;SDS011;7123;49.468;10.992;2023-05-13T09:43:31;2.83;;;2.50;;
14092;SDS011;7123;49.468;10.992;2023-05-13T09:46:03;3.73;;;2.60;;
14092;SDS011;7123;49.468;10.992;2023-05-13T09:48:30;3.80;;;2.53;;
14092;SDS011;7123;49.468;10.992;2023-05-13T09:50:58;2.70;;;2.50;;
14092;SDS011;7123;49.468;10.992;2023-05-13T09:53:26;2.77;;;2.57;;
14092;SDS011;7123;49.468;10.992;2023-05-13T09:55:53;2.53;;;2.33;;
14092;SDS011;7123;49.468;10.992;2023-05-13T09:58:22;2.53;;;2.33;;
14092;SDS011;7123;49.468;10.992;2023-05-13T10:00:49;2.50;;;2.30;;
14092;SDS011;7123;49.468;10.992;2023-05-13T10:03:17;2.53;;;2.40;;
14092;SDS011;7123;49.468;10.992;2023-05-13T10:05:45;2.30;;;2.20;;
14092;SDS011;7123;49.468;10.992;2023-05-13T10:08:13;2.50;;;2.30;;
14092;SDS011;7123;49.468;10.992;2023-05-13T10:10:43;2.27;;;2.17;;
14092;SDS011;7123;49.468;10.992;2023-05-13T10:13:12;2.20;;;2.10;;
14092;SDS011;7123;49.468;10.992;2023-05-13T10:15:47;2.60;;;2.40;;
14092;SDS011;7123;49.468;10.992;2023-05-13T10:18:16;3.03;;;2.17;;
14092;SDS011;7123;49.468;10.992;2023-05-13T10:20:44;2.93;;;2.70;;
14092;SDS011;7123;49.468;10.992;2023-05-13T10:23:12;2.10;;;2.00;;
14092;SDS011;7123;49.468;10.992;2023-05-13T10:25:38;2.73;;;2.53;;
14092;SDS011;7123;49.468;10.992;2023-05-13T10:28:06;2.73;;;2.37;;
14092;SDS011;7123;49.468;10.992;2023-05-13T10:30:35;2.43;;;2.30;;
14092;SDS011;7123;49.468;10.992;2023-05-13T10:33:03;2.33;;;2.10;;
14092;SDS011;7123;49.468;10.992;2023-05-13T10:35:31;2.40;;;2.20;;
14092;SDS011;7123;49.468;10.992;2023-05-13T10:43:57;2.17;;;2.07;;
14092;SDS011;7123;49.468;10.992;2023-05-13T10:46:24;2.30;;;2.20;;
14092;SDS011;7123;49.468;10.992;2023-05-13T10:48:57;4.00;;;2.27;;
14092;SDS011;7123;49.468;10.992;2023-05-13T10:51:25;2.40;;;2.30;;
14092;SDS011;7123;49.468;10.992;2023-05-13T10:53:53;1.90;;;1.80;;
14092;SDS011;7123;49.468;10.992;2023-05-13T10:56:22;2.27;;;2.17;;
14092;SDS011;7123;49.468;10.992;2023-05-13T10:59:00;2.20;;;2.10;;
14092;SDS011;7123;49.468;10.992;2023-05-13T11:01:29;2.30;;;2.20;;
14092;SDS011;7123;49.468;10.992;2023-05-13T11:04:00;2.53;;;2.10;;
14092;SDS011;7123;49.468;10.992;2023-05-13T11:06:35;2.00;;;1.90;;
14092;SDS011;7123;49.468;10.992;2023-05-13T11:09:06;2.10;;;2.00;;
14092;SDS011;7123;49.468;10.992;2023-05-13T11:11:34;3.60;;;2.13;;
14092;SDS011;7123;49.468;10.992;2023-05-13T11:14:04;2.50;;;2.30;;
14092;SDS011;7123;49.468;10.992;2023-05-13T11:16:37;2.30;;;2.20;;
14092;SDS011;7123;49.468;10.992;2023-05-13T11:19:17;2.40;;;2.30;;
14092;SDS011;7123;49.468;10.992;2023-05-13T11:21:48;2.17;;;2.03;;
14092;SDS011;7123;49.468;10.992;2023-05-13T11:24:17;2.00;;;1.90;;
14092;SDS011;7123;49.468;10.992;2023-05-13T11:26:46;2.87;;;2.30;;
14092;SDS011;7123;49.468;10.992;2023-05-13T11:29:50;2.60;;;2.40;;
14092;SDS011;7123;49.468;10.992;2023-05-13T11:35:21;2.33;;;2.23;;
14092;SDS011;7123;49.468;10.992;2023-05-13T11:37:49;2.03;;;1.93;;
14092;SDS011;7123;49.468;10.992;2023-05-13T11:40:34;2.23;;;2.10;;
14092;SDS011;7123;49.468;10.992;2023-05-13T11:43:03;2.33;;;2.13;;
14092;SDS011;7123;49.468;10.992;2023-05-13T11:45:30;2.87;;;2.57;;
14092;SDS011;7123;49.468;10.992;2023-05-13T11:48:00;2.50;;;2.40;;
14092;SDS011;7123;49.468;10.992;2023-05-13T11:50:46;2.53;;;2.40;;
14092;SDS011;7123;49.468;10.992;2023-05-13T11:53:19;2.40;;;2.20;;
14092;SDS011;7123;49.468;10.992;2023-05-13T11:55:48;2.60;;;2.13;;
14092;SDS011;7123;49.468;10.992;2023-05-13T11:58:15;2.63;;;2.43;;
14092;SDS011;7123;49.468;10.992;2023-05-13T12:00:45;2.80;;;2.60;;
14092;SDS011;7123;49.468;10.992;2023-05-13T12:03:12;2.80;;;2.13;;
14092;SDS011;7123;49.468;10.992;2023-05-13T12:05:41;4.43;;;2.43;;
14092;SDS011;7123;49.468;10.992;2023-05-13T12:08:11;2.30;;;2.10;;
14092;SDS011;7123;49.468;10.992;2023-05-13T12:10:41;2.50;;;2.30;;
14092;SDS011;7123;49.468;10.992;2023-05-13T12:13:08;2.30;;;2.20;;
14092;SDS011;7123;49.468;10.992;2023-05-13T12:15:35;2.30;;;2.20;;
14092;SDS011;7123;49.468;10.992;2023-05-13T12:18:02;2.57;;;2.47;;
14092;SDS011;7123;49.468;10.992;2023-05-13T12:20:29;2.87;;;2.67;;
14092;SDS011;7123;49.468;10.992;2023-05-13T12:22:56;2.50;;;2.30;;
14092;SDS011;7123;49.468;10.992;2023-05-13T12:25:38;3.20;;;2.70;;
14092;SDS011;7123;49.468;10.992;2023-05-13T12:28:17;2.80;;;2.40;;
14092;SDS011;7123;49.468;10.992;2023-05-13T12:30:58;2.80;;;2.60;;
14092;SDS011;7123;49.468;10.992;2023-05-13T12:34:00;2.93;;;2.73;;
14092;SDS011;7123;49.468;10.992;2023-05-13T12:36:21;2.53;;;2.27;;
14092;SDS011;7123;49.468;10.992;2023-05-13T12:39:03;2.80;;;2.60;;
14092;SDS011;7123;49.468;10.992;2023-05-13T12:41:35;2.57;;;2.37;;
14092;SDS011;7123;49.468;10.992;2023-05-13T12:44:06;2.93;;;2.67;;
14092;SDS011;7123;49.468;10.992;2023-05-13T12:46:34;4.80;;;2.50;;
14092;SDS011;7123;49.468;10.992;2023-05-13T12:49:02;2.90;;;2.70;;
14092;SDS011;7123;49.468;10.992;2023-05-13T12:51:29;6.63;;;2.37;;
14092;SDS011;7123;49.468;10.992;2023-05-13T12:54:00;4.50;;;2.13;;
14092;SDS011;7123;49.468;10.992;2023-05-13T12:56:27;3.47;;;2.70;;
14092;SDS011;7123;49.468;10.992;2023-05-13T12:58:53;2.67;;;2.40;;
14092;SDS011;7123;49.468;10.992;2023-05-13T13:01:21;3.03;;;2.80;;
14092;SDS011;7123;49.468;10.992;2023-05-13T13:03:48;2.47;;;2.27;;
14092;SDS011;7123;49.468;10.992;2023-05-13T13:06:15;3.10;;;2.80;;
14092;SDS011;7123;49.468;10.992;2023-05-13T13:08:42;3.33;;;2.70;;
14092;SDS011;7123;49.468;10.992;2023-05-13T13:11:09;2.53;;;2.33;;
14092;SDS011;7123;49.468;10.992;2023-05-13T13:13:39;2.17;;;2.07;;
14092;SDS011;7123;49.468;10.992;2023-05-13T13:16:06;2.27;;;2.10;;
14092;SDS011;7123;49.468;10.992;2023-05-13T13:18:34;2.63;;;2.13;;
14092;SDS011;7123;49.468;10.992;2023-05-13T13:21:01;2.07;;;1.90;;
14092;SDS011;7123;49.468;10.992;2023-05-13T13:23:28;2.30;;;2.20;;
14092;SDS011;7123;49.468;10.992;2023-05-13T13:25:54;2.30;;;2.20;;
14092;SDS011;7123;49.468;10.992;2023-05-13T13:28:24;2.37;;;2.23;;
14092;SDS011;7123;49.468;10.992;2023-05-13T13:30:51;2.20;;;2.10;;
14092;SDS011;7123;49.468;10.992;2023-05-13T13:33:18;4.60;;;2.57;;
14092;SDS011;7123;49.468;10.992;2023-05-13T13:35:45;3.80;;;2.07;;
14092;SDS011;7123;49.468;10.992;2023-05-13T13:38:13;2.37;;;2.17;;
14092;SDS011;7123;49.468;10.992;2023-05-13T13:40:40;2.20;;;2.10;;
14092;SDS011;7123;49.468;10.992;2023-05-13T13:43:06;2.40;;;2.23;;
14092;SDS011;7123;49.468;10.992;2023-05-13T13:45:33;2.10;;;2.00;;
14092;SDS011;7123;49.468;10.992;2023-05-13T13:48:02;2.47;;;2.30;;
14092;SDS011;7123;49.468;10.992;2023-05-13T13:50:28;2.20;;;2.10;;
14092;SDS011;7123;49.468;10.992;2023-05-13T13:52:55;2.10;;;2.00;;
14092;SDS011;7123;49.468;10.992;2023-05-13T13:55:22;2.10;;;2.00;;
14092;SDS011;7123;49.468;10.992;2023-05-13T13:57:49;2.27;;;2.10;;
14092;SDS011;7123;49.468;10.992;2023-05-13T14:00:17;2.10;;;2.00;;
14092;SDS011;7123;49.468;10.992;2023-05-13T14:02:44;1.83;;;1.73;;
14092;SDS011;7123;49.468;10.992;2023-05-13T14:05:11;1.83;;;1.73;;
14092;SDS011;7123;49.468;10.992;2023-05-13T14:07:38;1.90;;;1.80;;
14092;SDS011;7123;49.468;10.992;2023-05-13T14:10:05;2.07;;;1.87;;
14092;SDS011;7123;49.468;10.992;2023-05-13T14:12:32;2.40;;;2.20;;
14092;SDS011;7123;49.468;10.992;2023-05-13T14:15:01;2.10;;;2.00;;
14092;SDS011;7123;49.468;10.992;2023-05-13T14:17:28;3.63;;;2.10;;
14092;SDS011;7123;49.468;10.992;2023-05-13T14:19:54;2.17;;;2.07;;
14092;SDS011;7123;49.468;10.992;2023-05-13T14:22:22;2.37;;;2.10;;
14092;SDS011;7123;49.468;10.992;2023-05-13T14:24:50;2.27;;;2.17;;
14092;SDS011;7123;49.468;10.992;2023-05-13T14:27:17;1.90;;;1.80;;
14092;SDS011;7123;49.468;10.992;2023-05-13T14:29:45;2.13;;;2.03;;
14092;SDS011;7123;49.468;10.992;2023-05-13T14:32:12;2.23;;;2.03;;
14092;SDS011;7123;49.468;10.992;2023-05-13T14:34:39;1.93;;;1.83;;
14092;SDS011;7123;49.468;10.992;2023-05-13T14:37:06;2.43;;;2.20;;
14092;SDS011;7123;49.468;10.992;2023-05-13T14:39:33;2.20;;;1.93;;
14092;SDS011;7123;49.468;10.992;2023-05-13T14:42:00;1.97;;;1.73;;
14092;SDS011;7123;49.468;10.992;2023-05-13T14:44:27;2.00;;;1.90;;
14092;SDS011;7123;49.468;10.992;2023-05-13T14:46:53;1.93;;;1.83;;
14092;SDS011;7123;49.468;10.992;2023-05-13T14:49:21;2.00;;;1.90;;
14092;SDS011;7123;49.468;10.992;2023-05-13T14:51:47;2.27;;;1.70;;
14092;SDS011;7123;49.468;10.992;2023-05-13T14:54:14;1.83;;;1.73;;
14092;SDS011;7123;49.468;10.992;2023-05-13T14:56:42;1.50;;;1.40;;
14092;SDS011;7123;49.468;10.992;2023-05-13T14:59:09;1.57;;;1.47;;
14092;SDS011;7123;49.468;10.992;2023-05-13T15:01:36;1.90;;;1.80;;
14092;SDS011;7123;49.468;10.992;2023-05-13T15:04:04;1.90;;;1.80;;
14092;SDS011;7123;49.468;10.992;2023-05-13T15:06:31;1.80;;;1.70;;
14092;SDS011;7123;49.468;10.992;2023-05-13T15:08:58;2.13;;;1.60;;